Time;durP1;ratioP1;P1;durP2;ratioP2;P2;SDS_P1;SDS_P2;PMS_P1;PMS_P2;Temp;Humidity;BMP_temperature;BMP_pressure;BME280_temperature;BME280_humidity;BME280_pressure;Samples;Min_cycle;Max_cycle;Signal;HPM_P1;HPM_P2
2023/01/31 00:00:46;;;;;;;20.93;6.23;;;6.90;99.90;;;;;;5041530;28;20587;-31
2023/01/31 00:03:13;;;;;;;19.37;6.77;;;6.90;99.90;;;;;;5026510;28;20308;-31
2023/01/31 00:05:40;;;;;;;20.67;7.33;;;6.90;99.90;;;;;;5032507;28;20764;-31
2023/01/31 00:08:11;;;;;;;19.80;6.63;;;6.90;99.90;;;;;;5045620;28;20836;-31
2023/01/31 00:10:43;;;;;;;22.43;6.17;;;6.90;99.90;;;;;;5042482;28;20208;-31
2023/01/31 00:13:10;;;;;;;15.63;5.63;;;6.90;99.90;;;;;;5043021;28;20921;-31
2023/01/31 00:15:37;;;;;;;22.63;6.40;;;6.90;99.90;;;;;;5025808;28;20258;-31
2023/01/31 00:18:09;;;;;;;17.93;5.93;;;6.90;99.90;;;;;;5042754;28;20556;-31
2023/01/31 00:20:36;;;;;;;15.97;5.87;;;6.90;99.90;;;;;;5063343;28;20707;-31
2023/01/31 00:23:06;;;;;;;19.37;6.43;;;6.90;99.90;;;;;;5060044;28;20207;-31
2023/01/31 00:25:34;;;;;;;16.57;6.33;;;6.90;99.90;;;;;;5043168;28;20258;-31
2023/01/31 00:28:01;;;;;;;19.73;6.63;;;6.90;99.90;;;;;;5042813;28;20798;-31
2023/01/31 00:30:32;;;;;;;16.97;6.70;;;6.80;99.90;;;;;;5043687;28;20188;-31
2023/01/31 00:33:02;;;;;;;22.73;6.17;;;6.80;99.90;;;;;;5043428;28;20586;-31
2023/01/31 00:35:32;;;;;;;14.97;5.47;;;6.80;99.90;;;;;;5042493;28;20211;-32
2023/01/31 00:37:59;;;;;;;20.53;6.50;;;6.80;99.90;;;;;;5043757;28;20694;-31
2023/01/31 00:40:31;;;;;;;16.97;5.37;;;6.80;99.90;;;;;;5045188;28;20208;-31
2023/01/31 00:43:02;;;;;;;21.47;5.60;;;6.80;99.90;;;;;;5043589;28;20204;-31
2023/01/31 00:45:36;;;;;;;25.30;7.63;;;6.70;99.90;;;;;;5044133;28;20227;-31
2023/01/31 00:48:05;;;;;;;17.50;6.40;;;6.70;99.90;;;;;;5045133;28;20547;-31
2023/01/31 00:50:33;;;;;;;16.67;6.37;;;6.70;99.90;;;;;;5042865;28;20258;-31
2023/01/31 00:53:01;;;;;;;21.33;6.20;;;6.70;99.90;;;;;;5044859;28;20232;-31
2023/01/31 00:55:29;;;;;;;20.43;6.50;;;6.70;99.90;;;;;;5043293;28;20579;-31
2023/01/31 00:57:56;;;;;;;18.90;6.13;;;6.60;99.90;;;;;;5044275;28;20293;-31
2023/01/31 01:00:26;;;;;;;23.13;6.17;;;6.60;99.90;;;;;;5043178;28;20204;-31
2023/01/31 01:02:56;;;;;;;20.00;5.97;;;6.60;99.90;;;;;;5036492;28;20208;-32
2023/01/31 01:05:26;;;;;;;26.13;6.47;;;6.60;99.90;;;;;;5038735;28;20219;-32
2023/01/31 01:07:55;;;;;;;16.47;6.23;;;6.60;99.90;;;;;;5024755;28;20201;-32
2023/01/31 01:10:25;;;;;;;22.23;6.53;;;6.60;99.90;;;;;;5035056;28;20249;-32
2023/01/31 01:12:57;;;;;;;20.93;6.33;;;6.50;99.90;;;;;;5057272;28;20207;-32
2023/01/31 01:15:24;;;;;;;19.43;5.93;;;6.50;99.90;;;;;;5064872;28;20195;-32
2023/01/31 01:17:53;;;;;;;17.67;6.10;;;6.50;99.90;;;;;;5064964;28;20249;-32
2023/01/31 01:20:21;;;;;;;17.67;6.47;;;6.50;99.90;;;;;;5064660;28;20199;-32
2023/01/31 01:22:50;;;;;;;14.03;6.10;;;6.50;99.90;;;;;;5049179;28;20698;-31
2023/01/31 01:25:17;;;;;;;23.43;6.13;;;6.50;99.90;;;;;;5044062;28;20578;-32
2023/01/31 01:27:50;;;;;;;17.67;6.33;;;6.50;99.90;;;;;;5045238;28;20207;-32
2023/01/31 01:30:20;;;;;;;16.83;6.07;;;6.50;99.90;;;;;;5044933;28;20228;-32
2023/01/31 01:32:49;;;;;;;17.73;6.23;;;6.40;99.90;;;;;;5043863;28;20215;-32
2023/01/31 01:35:17;;;;;;;20.43;6.60;;;6.50;99.90;;;;;;5024584;28;20192;-32
2023/01/31 01:37:44;;;;;;;20.37;6.07;;;6.40;99.90;;;;;;5042699;28;20299;-31
2023/01/31 01:40:14;;;;;;;18.57;6.10;;;6.40;99.90;;;;;;5043017;28;20200;-31
2023/01/31 01:42:45;;;;;;;16.10;5.53;;;6.40;99.90;;;;;;5045029;28;20227;-31
2023/01/31 01:45:18;;;;;;;18.67;6.30;;;6.40;99.90;;;;;;5036262;28;20208;-31
2023/01/31 01:47:53;;;;;;;16.57;6.23;;;6.40;99.90;;;;;;5038160;28;20220;-31
2023/01/31 01:50:35;;;;;;;18.03;6.43;;;6.40;99.90;;;;;;5039227;28;20542;-31
2023/01/31 01:53:12;;;;;;;17.37;6.83;;;6.30;99.90;;;;;;5023472;28;20237;-31
2023/01/31 01:55:55;;;;;;;16.43;6.00;;;6.30;99.90;;;;;;5025163;28;20572;-31
2023/01/31 01:58:24;;;;;;;15.97;6.20;;;6.20;99.90;;;;;;5028313;28;20216;-31
2023/01/31 02:00:53;;;;;;;20.17;6.67;;;6.20;99.90;;;;;;5042472;28;20243;-31
2023/01/31 02:03:21;;;;;;;19.20;6.27;;;6.20;99.90;;;;;;5029212;28;20209;-31
2023/01/31 02:05:55;;;;;;;13.87;5.97;;;6.20;99.90;;;;;;5023388;28;20275;-32
2023/01/31 02:08:24;;;;;;;22.90;7.10;;;6.20;99.90;;;;;;5040058;28;20235;-31
2023/01/31 02:11:21;;;;;;;19.23;6.90;;;6.20;99.90;;;;;;5033458;28;20224;-31
2023/01/31 02:13:54;;;;;;;17.43;6.30;;;6.20;99.90;;;;;;5042037;28;20212;-32
2023/01/31 02:16:26;;;;;;;18.80;6.87;;;6.10;99.90;;;;;;5042484;28;20629;-31
2023/01/31 02:18:55;;;;;;;15.87;6.37;;;6.10;99.90;;;;;;5043129;28;20594;-31
2023/01/31 02:22:09;;;;;;;20.13;7.13;;;6.10;99.90;;;;;;5025651;28;20217;-31
2023/01/31 02:25:13;;;;;;;17.50;6.10;;;6.10;99.90;;;;;;5041261;28;20217;-31
2023/01/31 02:28:01;;;;;;;22.37;7.23;;;6.10;99.90;;;;;;5031995;28;20204;-31
2023/01/31 02:31:15;;;;;;;20.20;6.73;;;6.00;99.90;;;;;;5046327;28;20228;-31
2023/01/31 02:33:59;;;;;;;16.30;6.40;;;6.00;99.90;;;;;;5060457;28;20219;-31
2023/01/31 02:36:29;;;;;;;21.30;6.33;;;6.00;99.90;;;;;;5046323;28;20192;-31
2023/01/31 02:39:02;;;;;;;18.80;6.47;;;5.90;99.90;;;;;;5045760;28;20636;-31
2023/01/31 02:41:47;;;;;;;17.03;6.60;;;5.90;99.90;;;;;;5040916;28;20369;-31
2023/01/31 02:47:29;;;;;;;18.17;6.80;;;5.90;99.90;;;;;;5046021;28;20224;-31
2023/01/31 02:50:26;;;;;;;23.10;7.07;;;5.90;99.90;;;;;;5046313;28;20732;-31
2023/01/31 02:53:15;;;;;;;19.37;7.50;;;5.90;99.90;;;;;;5048984;28;20244;-31
2023/01/31 02:56:16;;;;;;;22.30;7.37;;;5.90;99.90;;;;;;5027536;28;20209;-31
2023/01/31 02:58:49;;;;;;;16.63;7.00;;;5.80;99.90;;;;;;5047610;28;20200;-32
2023/01/31 03:01:23;;;;;;;19.03;7.73;;;5.80;99.90;;;;;;5062763;28;20757;-31
2023/01/31 03:03:53;;;;;;;18.13;6.67;;;5.80;99.90;;;;;;5067572;28;20207;-31
2023/01/31 03:06:23;;;;;;;20.77;6.67;;;5.80;99.90;;;;;;5065170;28;20284;-31
2023/01/31 03:09:04;;;;;;;18.17;8.03;;;5.70;99.90;;;;;;5059446;28;20208;-31
2023/01/31 03:11:45;;;;;;;20.77;7.40;;;5.80;99.90;;;;;;5047579;28;20203;-31
2023/01/31 03:14:27;;;;;;;15.70;6.60;;;5.70;99.90;;;;;;5047415;28;20216;-31
2023/01/31 03:20:12;;;;;;;18.93;7.67;;;5.70;99.90;;;;;;5047349;28;20252;-31
2023/01/31 03:22:53;;;;;;;18.27;6.90;;;5.70;99.90;;;;;;5044363;28;20907;-31
2023/01/31 03:25:26;;;;;;;22.87;7.40;;;5.60;99.90;;;;;;5045729;28;20254;-31
2023/01/31 03:28:02;;;;;;;18.33;7.00;;;5.60;99.90;;;;;;5045540;28;20219;-31
2023/01/31 03:30:39;;;;;;;19.23;7.07;;;5.60;99.90;;;;;;5028752;28;20285;-31
2023/01/31 03:33:23;;;;;;;18.73;6.97;;;5.60;99.90;;;;;;5045813;28;20211;-32
2023/01/31 03:35:58;;;;;;;18.47;6.83;;;5.60;99.90;;;;;;5039339;28;20211;-31
2023/01/31 03:38:33;;;;;;;18.80;7.80;;;5.60;99.90;;;;;;5040750;28;20202;-31
2023/01/31 03:41:20;;;;;;;21.67;6.80;;;5.60;99.90;;;;;;5043694;28;20230;-31
2023/01/31 03:44:08;;;;;;;22.80;7.30;;;5.50;99.90;;;;;;5045554;28;20204;-31
2023/01/31 03:46:43;;;;;;;18.47;7.27;;;5.60;99.90;;;;;;5042887;28;20196;-31
2023/01/31 03:49:14;;;;;;;24.20;7.63;;;5.50;99.90;;;;;;5046582;28;20247;-31
2023/01/31 03:51:50;;;;;;;20.37;7.07;;;5.50;99.90;;;;;;5044350;28;20236;-31
2023/01/31 03:54:24;;;;;;;18.97;7.27;;;5.50;99.90;;;;;;5051814;28;20572;-31
2023/01/31 03:56:59;;;;;;;17.83;7.17;;;5.50;99.90;;;;;;5066416;28;20196;-32
2023/01/31 03:59:33;;;;;;;19.53;6.70;;;5.50;99.90;;;;;;5052025;28;20228;-31
2023/01/31 04:02:04;;;;;;;16.60;6.63;;;5.50;99.90;;;;;;5044563;28;20759;-32
2023/01/31 04:04:39;;;;;;;17.37;7.13;;;5.40;99.90;;;;;;5045098;28;20208;-31
2023/01/31 04:07:06;;;;;;;15.13;6.70;;;5.40;99.90;;;;;;5031558;28;20695;-31
2023/01/31 04:09:34;;;;;;;20.73;7.10;;;5.40;99.90;;;;;;5008409;28;20608;-31
2023/01/31 04:12:02;;;;;;;20.63;7.30;;;5.40;99.90;;;;;;5033789;28;20624;-31
2023/01/31 04:14:32;;;;;;;18.70;7.53;;;5.40;99.90;;;;;;5065976;28;20257;-31
2023/01/31 04:16:59;;;;;;;20.47;6.77;;;5.40;99.90;;;;;;5063820;28;20725;-31
2023/01/31 04:19:26;;;;;;;19.97;6.70;;;5.40;99.90;;;;;;5050324;28;20217;-31
2023/01/31 04:21:55;;;;;;;21.13;6.73;;;5.40;99.90;;;;;;5042860;28;20270;-32
2023/01/31 04:24:27;;;;;;;19.57;7.03;;;5.40;99.90;;;;;;5043152;28;20586;-31
2023/01/31 04:27:02;;;;;;;21.40;6.83;;;5.30;99.90;;;;;;5043717;28;20223;-31
2023/01/31 04:29:31;;;;;;;19.13;6.67;;;5.40;99.90;;;;;;5045332;28;20282;-31
2023/01/31 04:31:58;;;;;;;19.70;6.70;;;5.30;99.90;;;;;;5045384;28;20697;-31
2023/01/31 04:34:25;;;;;;;21.77;6.27;;;5.30;99.90;;;;;;5045451;28;20601;-31
2023/01/31 04:36:52;;;;;;;18.83;6.80;;;5.30;99.90;;;;;;5041565;28;20212;-31
2023/01/31 04:39:22;;;;;;;18.70;6.10;;;5.30;99.90;;;;;;5043786;28;20365;-31
2023/01/31 04:41:49;;;;;;;16.17;6.67;;;5.30;99.90;;;;;;5045433;28;20199;-31
2023/01/31 04:44:19;;;;;;;16.40;7.00;;;5.30;99.90;;;;;;5045699;28;20232;-31
2023/01/31 04:46:46;;;;;;;20.17;6.13;;;5.30;99.90;;;;;;5045089;28;20231;-31
2023/01/31 04:49:16;;;;;;;19.30;6.63;;;5.30;99.90;;;;;;5042631;28;20327;-31
2023/01/31 04:51:43;;;;;;;19.17;6.93;;;5.30;99.90;;;;;;5043796;28;20225;-32
2023/01/31 04:54:13;;;;;;;18.07;6.80;;;5.30;99.90;;;;;;5044776;28;20211;-31
2023/01/31 04:56:45;;;;;;;16.47;6.63;;;5.30;99.90;;;;;;5040535;28;20254;-31
2023/01/31 04:59:16;;;;;;;17.70;6.67;;;5.20;99.90;;;;;;5045597;28;20610;-31
2023/01/31 05:01:44;;;;;;;20.37;6.83;;;5.20;99.90;;;;;;5043461;28;20251;-31
2023/01/31 05:04:13;;;;;;;19.47;6.53;;;5.20;99.90;;;;;;5032535;28;20212;-31
2023/01/31 05:06:43;;;;;;;16.80;6.50;;;5.20;99.90;;;;;;5022861;28;20212;-31
2023/01/31 05:09:12;;;;;;;20.30;6.30;;;5.20;99.90;;;;;;5025104;28;20876;-31
2023/01/31 05:11:42;;;;;;;16.70;6.50;;;5.20;99.90;;;;;;5024994;28;20225;-31
2023/01/31 05:14:09;;;;;;;14.27;6.43;;;5.20;99.90;;;;;;5030633;28;20659;-31
2023/01/31 05:16:36;;;;;;;21.63;7.27;;;5.20;99.90;;;;;;5044467;28;20566;-31
2023/01/31 05:19:03;;;;;;;18.07;6.83;;;5.30;99.90;;;;;;5044806;28;20310;-31
2023/01/31 05:21:53;;;;;;;19.90;6.60;;;5.30;99.90;;;;;;5042311;28;20215;-33
2023/01/31 05:24:19;;;;;;;20.47;6.90;;;5.30;99.90;;;;;;5044691;28;20241;-33
2023/01/31 05:26:46;;;;;;;19.90;6.80;;;5.30;99.90;;;;;;5025302;28;20207;-32
2023/01/31 05:29:17;;;;;;;21.30;6.40;;;5.30;99.90;;;;;;5043203;28;20232;-32
2023/01/31 05:31:53;;;;;;;19.67;6.20;;;5.30;99.90;;;;;;5042947;28;20212;-32
2023/01/31 05:34:24;;;;;;;21.80;6.70;;;5.40;99.90;;;;;;5043329;28;20631;-32
2023/01/31 05:36:57;;;;;;;18.43;6.30;;;5.30;99.90;;;;;;5042527;28;20201;-32
2023/01/31 05:39:24;;;;;;;17.80;6.80;;;5.40;99.90;;;;;;5041435;28;20632;-32
2023/01/31 05:41:56;;;;;;;18.60;6.33;;;5.30;99.90;;;;;;5042908;28;20687;-32
2023/01/31 05:44:26;;;;;;;16.63;6.60;;;5.30;99.90;;;;;;5044428;28;20571;-32
2023/01/31 05:46:55;;;;;;;16.67;5.97;;;5.30;99.90;;;;;;5044413;28;20629;-32
2023/01/31 05:49:22;;;;;;;13.73;5.93;;;5.30;99.90;;;;;;5044489;28;20228;-32
2023/01/31 05:51:50;;;;;;;19.13;6.27;;;5.30;99.90;;;;;;5029693;28;20283;-32
2023/01/31 05:54:17;;;;;;;17.30;6.20;;;5.30;99.90;;;;;;5023603;28;20692;-32
2023/01/31 05:56:44;;;;;;;18.23;6.33;;;5.30;99.90;;;;;;5022932;28;20232;-32
2023/01/31 05:59:11;;;;;;;17.50;5.80;;;5.30;99.90;;;;;;5035013;28;20246;-32
2023/01/31 06:01:40;;;;;;;16.70;6.33;;;5.40;99.90;;;;;;5022604;28;20251;-32
2023/01/31 06:04:09;;;;;;;23.67;6.60;;;5.40;99.90;;;;;;5034473;28;20264;-32
2023/01/31 06:06:38;;;;;;;16.43;5.83;;;5.40;99.90;;;;;;5045916;28;20647;-32
2023/01/31 06:09:08;;;;;;;12.07;5.37;;;5.40;99.90;;;;;;5045313;28;20193;-32
2023/01/31 06:11:37;;;;;;;13.10;5.43;;;5.40;99.90;;;;;;5040113;28;20223;-32
2023/01/31 06:14:06;;;;;;;12.50;5.80;;;5.40;99.90;;;;;;5037023;28;20246;-32
2023/01/31 06:16:39;;;;;;;16.73;5.27;;;5.40;99.90;;;;;;5042682;28;20270;-32
2023/01/31 06:19:06;;;;;;;16.73;6.43;;;5.40;99.90;;;;;;5039518;28;20199;-32
2023/01/31 06:21:35;;;;;;;12.73;6.00;;;5.50;99.90;;;;;;5046703;28;20610;-32
2023/01/31 06:24:05;;;;;;;14.30;6.87;;;5.50;99.90;;;;;;5047129;28;20208;-32
2023/01/31 06:26:37;;;;;;;16.33;6.27;;;5.50;99.90;;;;;;5047482;28;20204;-32
2023/01/31 06:29:07;;;;;;;16.40;6.63;;;5.50;99.90;;;;;;5047619;28;20655;-32
2023/01/31 06:31:34;;;;;;;24.50;8.20;;;5.50;99.90;;;;;;5047175;28;20200;-31
2023/01/31 06:34:04;;;;;;;19.63;7.13;;;5.50;99.90;;;;;;5043333;28;20258;-32
2023/01/31 06:36:32;;;;;;;17.80;6.37;;;5.50;99.90;;;;;;5046005;28;20578;-32
2023/01/31 06:39:05;;;;;;;15.17;6.30;;;5.50;99.90;;;;;;5047570;28;20208;-32
2023/01/31 06:41:34;;;;;;;24.37;7.47;;;5.60;99.90;;;;;;5045623;28;20630;-32
2023/01/31 06:44:04;;;;;;;20.40;7.53;;;5.60;99.90;;;;;;5047500;28;20691;-32
2023/01/31 06:46:31;;;;;;;15.43;7.20;;;5.60;99.90;;;;;;5035837;28;20212;-32
2023/01/31 06:48:59;;;;;;;18.90;7.03;;;5.60;99.90;;;;;;5035884;28;20664;-31
2023/01/31 06:51:26;;;;;;;24.93;8.13;;;5.70;99.90;;;;;;5035909;28;20243;-32
2023/01/31 06:54:00;;;;;;;19.93;8.20;;;5.70;99.90;;;;;;5044837;28;20211;-32
2023/01/31 06:56:30;;;;;;;21.83;8.10;;;5.70;99.90;;;;;;5055376;28;20215;-32
2023/01/31 06:58:57;;;;;;;22.53;8.83;;;5.70;99.90;;;;;;5047140;28;20286;-32
2023/01/31 07:01:26;;;;;;;19.30;7.77;;;5.70;99.90;;;;;;5045339;28;20203;-32
2023/01/31 07:03:56;;;;;;;20.07;7.63;;;5.80;99.90;;;;;;5040441;28;20608;-33
2023/01/31 07:06:23;;;;;;;16.50;7.37;;;5.80;99.90;;;;;;5042556;28;20201;-32
2023/01/31 07:08:51;;;;;;;22.53;8.27;;;5.80;99.90;;;;;;5041501;28;20227;-32
2023/01/31 07:11:20;;;;;;;24.53;8.23;;;5.90;99.90;;;;;;5040909;28;20230;-32
2023/01/31 07:13:50;;;;;;;21.23;8.43;;;5.90;99.90;;;;;;5046997;28;20286;-32
2023/01/31 07:16:18;;;;;;;19.43;7.23;;;5.90;99.90;;;;;;5043895;28;20203;-32
2023/01/31 07:18:45;;;;;;;20.83;8.93;;;6.00;99.90;;;;;;5035554;28;20197;-32
2023/01/31 07:21:15;;;;;;;22.57;7.27;;;6.00;99.90;;;;;;5033129;28;20271;-32
2023/01/31 07:23:45;;;;;;;17.03;6.97;;;6.00;99.90;;;;;;5032267;28;20216;-32
2023/01/31 07:26:12;;;;;;;21.20;7.40;;;6.00;99.90;;;;;;5037113;28;20273;-32
2023/01/31 07:28:39;;;;;;;23.27;7.20;;;6.10;99.90;;;;;;5040827;28;20270;-32
2023/01/31 07:31:18;;;;;;;21.23;7.40;;;6.10;99.90;;;;;;5043762;28;20893;-32
2023/01/31 07:33:52;;;;;;;19.37;7.07;;;6.10;99.90;;;;;;5033428;28;20253;-32
2023/01/31 07:36:25;;;;;;;18.50;6.70;;;6.20;99.90;;;;;;5042802;28;20200;-31
2023/01/31 07:38:58;;;;;;;23.20;7.13;;;6.20;99.90;;;;;;5039613;28;20211;-31
2023/01/31 07:41:26;;;;;;;20.10;7.03;;;6.20;99.90;;;;;;5038227;28;20208;-32
2023/01/31 07:43:55;;;;;;;18.63;6.77;;;6.20;99.90;;;;;;5056136;28;20574;-32
2023/01/31 07:46:24;;;;;;;21.67;6.37;;;6.30;99.90;;;;;;5065576;28;20269;-31
2023/01/31 07:48:51;;;;;;;21.80;5.63;;;6.30;99.90;;;;;;5039548;28;20255;-32
2023/01/31 07:51:25;;;;;;;17.90;6.67;;;6.30;99.90;;;;;;5041342;28;20250;-32
2023/01/31 07:53:53;;;;;;;26.93;6.93;;;6.40;99.90;;;;;;5039714;28;20594;-31
2023/01/31 07:56:20;;;;;;;17.37;6.33;;;6.40;99.90;;;;;;5028296;28;20208;-31
2023/01/31 07:58:50;;;;;;;26.07;6.97;;;6.40;99.90;;;;;;5050692;28;20265;-32
2023/01/31 08:04:15;;;;;;;21.03;6.00;;;6.50;99.90;;;;;;5048318;28;20197;-32
2023/01/31 08:06:52;;;;;;;19.03;6.37;;;6.50;99.90;;;;;;5037581;28;20224;-32
2023/01/31 08:09:25;;;;;;;18.97;6.93;;;6.50;99.90;;;;;;5022227;28;20236;-32
2023/01/31 08:11:52;;;;;;;20.20;5.90;;;6.60;99.90;;;;;;5045831;28;20224;-31
2023/01/31 08:14:24;;;;;;;15.87;5.47;;;6.60;99.90;;;;;;5038214;28;20208;-31
2023/01/31 08:16:54;;;;;;;15.87;6.03;;;6.70;99.90;;;;;;5047441;28;20216;-32
2023/01/31 08:19:25;;;;;;;19.07;6.20;;;6.70;99.90;;;;;;5038089;28;20200;-32
2023/01/31 08:21:52;;;;;;;20.97;6.03;;;6.70;99.90;;;;;;5044232;28;20208;-32
2023/01/31 08:24:24;;;;;;;24.60;6.33;;;6.70;99.90;;;;;;5044666;28;20558;-32
2023/01/31 08:26:51;;;;;;;21.97;6.57;;;6.80;99.90;;;;;;5043639;28;20212;-32
2023/01/31 08:29:24;;;;;;;22.83;5.80;;;6.80;99.90;;;;;;5042526;28;20208;-31
2023/01/31 08:31:52;;;;;;;22.37;4.90;;;6.90;99.90;;;;;;5016284;28;20256;-31
2023/01/31 08:34:22;;;;;;;14.27;5.13;;;6.90;99.90;;;;;;5032949;28;20208;-32
2023/01/31 08:36:49;;;;;;;17.30;5.27;;;6.90;99.90;;;;;;5040162;28;20207;-32
2023/01/31 08:39:21;;;;;;;23.77;6.30;;;7.00;99.90;;;;;;5037410;28;20204;-31
2023/01/31 08:41:50;;;;;;;22.40;5.23;;;7.00;99.90;;;;;;5032936;28;20745;-31
2023/01/31 08:44:20;;;;;;;16.10;5.00;;;7.10;99.90;;;;;;5053496;28;20762;-32
2023/01/31 08:46:49;;;;;;;22.00;5.50;;;7.10;99.90;;;;;;5033389;28;20204;-32
2023/01/31 08:49:18;;;;;;;20.27;5.33;;;7.20;99.90;;;;;;5038157;28;20211;-32
2023/01/31 08:51:48;;;;;;;21.97;5.17;;;7.30;99.90;;;;;;5025015;28;20232;-31
2023/01/31 08:54:19;;;;;;;18.40;5.20;;;7.30;99.90;;;;;;5025537;28;20475;-31
2023/01/31 08:56:46;;;;;;;20.33;5.37;;;7.30;99.90;;;;;;5023669;28;20906;-31
2023/01/31 08:59:13;;;;;;;18.70;5.13;;;7.40;99.90;;;;;;5045302;28;20660;-31
2023/01/31 09:01:42;;;;;;;17.87;5.90;;;7.50;99.90;;;;;;5042571;28;20584;-31
2023/01/31 09:04:10;;;;;;;23.93;5.73;;;7.50;99.90;;;;;;5043823;28;20201;-31
2023/01/31 09:06:37;;;;;;;17.30;5.53;;;7.60;99.90;;;;;;5027011;28;20723;-31
2023/01/31 09:09:06;;;;;;;19.63;5.13;;;7.60;99.90;;;;;;5041345;28;20219;-31
2023/01/31 09:11:34;;;;;;;21.87;5.53;;;7.60;99.90;;;;;;5041132;28;20327;-32
2023/01/31 09:14:04;;;;;;;19.30;5.53;;;7.70;99.90;;;;;;5036700;28;20200;-31
2023/01/31 09:16:31;;;;;;;13.27;4.93;;;7.70;99.90;;;;;;5043529;28;20219;-31
2023/01/31 09:19:02;;;;;;;14.97;4.97;;;7.70;99.90;;;;;;5044721;28;20205;-31
2023/01/31 09:21:31;;;;;;;20.37;5.60;;;7.70;99.90;;;;;;5040969;28;20200;-32
2023/01/31 09:24:02;;;;;;;14.63;5.10;;;7.70;99.90;;;;;;5035298;28;20223;-32
2023/01/31 09:26:34;;;;;;;20.60;5.67;;;7.80;99.90;;;;;;5042905;28;20709;-31
2023/01/31 09:29:04;;;;;;;15.10;5.23;;;7.80;99.90;;;;;;5029812;28;20650;-32
2023/01/31 09:31:31;;;;;;;20.47;5.20;;;7.80;99.90;;;;;;5049505;28;20700;-32
2023/01/31 09:33:59;;;;;;;15.47;4.67;;;7.90;99.90;;;;;;5038917;28;20679;-31
2023/01/31 09:36:29;;;;;;;17.37;5.17;;;7.90;99.90;;;;;;5036859;28;20223;-31
2023/01/31 09:38:57;;;;;;;20.50;5.37;;;8.00;99.90;;;;;;5032133;28;20208;-32
2023/01/31 09:41:41;;;;;;;14.67;4.60;;;8.00;99.90;;;;;;5040456;28;20280;-32
2023/01/31 09:44:35;;;;;;;16.53;5.37;;;8.10;99.90;;;;;;5052237;28;20221;-32
2023/01/31 09:47:27;;;;;;;17.47;5.23;;;8.10;99.90;;;;;;5038012;28;20219;-32
2023/01/31 09:50:28;;;;;;;17.77;6.40;;;8.20;99.90;;;;;;5044995;28;20207;-31
2023/01/31 09:52:58;;;;;;;15.00;5.43;;;8.20;99.90;;;;;;5034254;28;20639;-31
2023/01/31 09:55:45;;;;;;;17.33;4.97;;;8.30;99.90;;;;;;5043106;28;20207;-31
2023/01/31 09:58:27;;;;;;;18.23;5.20;;;8.30;99.90;;;;;;5030816;28;20205;-31
2023/01/31 10:01:03;;;;;;;13.13;4.97;;;8.30;99.90;;;;;;5029457;28;20221;-31
2023/01/31 10:04:03;;;;;;;18.97;4.97;;;8.40;99.90;;;;;;5034955;28;20295;-31
2023/01/31 10:06:47;;;;;;;17.50;5.57;;;8.40;99.90;;;;;;5029769;28;20200;-32
2023/01/31 10:09:30;;;;;;;17.23;5.27;;;8.40;99.90;;;;;;5034377;28;20208;-31
2023/01/31 10:12:10;;;;;;;21.43;5.43;;;8.50;99.90;;;;;;5043174;28;20283;-31
2023/01/31 10:14:49;;;;;;;16.77;4.97;;;8.50;99.90;;;;;;5042891;28;20599;-32
2023/01/31 10:17:30;;;;;;;18.97;5.50;;;8.50;99.90;;;;;;5033954;28;21651;-31
2023/01/31 10:20:16;;;;;;;22.40;6.00;;;8.60;99.90;;;;;;5048613;28;20578;-31
2023/01/31 10:22:58;;;;;;;20.00;4.87;;;8.70;99.90;;;;;;5047024;28;20319;-31
2023/01/31 10:25:51;;;;;;;20.30;4.37;;;8.70;99.90;;;;;;5036944;28;20200;-31
2023/01/31 10:28:49;;;;;;;17.70;5.00;;;8.80;99.90;;;;;;5038863;28;20689;-31
2023/01/31 10:31:33;;;;;;;13.60;4.40;;;8.80;99.90;;;;;;5029331;28;20226;-31
2023/01/31 10:34:21;;;;;;;17.00;4.97;;;8.90;99.90;;;;;;5050768;28;20648;-31
2023/01/31 10:37:10;;;;;;;20.73;4.97;;;8.90;99.90;;;;;;5028799;28;20212;-31
2023/01/31 10:40:01;;;;;;;22.10;5.30;;;8.90;99.90;;;;;;5043169;28;20682;-31
2023/01/31 10:42:38;;;;;;;18.60;5.13;;;9.00;99.90;;;;;;5043414;28;20536;-33
2023/01/31 10:45:08;;;;;;;20.20;5.47;;;9.00;99.90;;;;;;5037046;28;20216;-32
2023/01/31 10:48:12;;;;;;;17.77;4.93;;;9.10;99.90;;;;;;5042510;28;20197;-30
2023/01/31 10:51:00;;;;;;;18.03;4.53;;;9.20;99.90;;;;;;5046842;28;20318;-33
2023/01/31 10:53:54;;;;;;;14.87;4.60;;;9.30;99.90;;;;;;5045502;28;20332;-33
2023/01/31 10:56:31;;;;;;;16.17;5.13;;;9.40;99.90;;;;;;5044828;28;20207;-33
2023/01/31 10:59:10;;;;;;;14.13;4.20;;;9.40;99.90;;;;;;5044492;28;20204;-31
2023/01/31 11:01:41;;;;;;;13.67;4.60;;;9.60;99.90;;;;;;5038528;28;20224;-31
2023/01/31 11:04:35;;;;;;;14.57;4.40;;;9.60;99.90;;;;;;5043038;28;20228;-31
2023/01/31 11:07:05;;;;;;;20.90;4.77;;;9.70;99.90;;;;;;5044706;28;20675;-31
2023/01/31 11:09:42;;;;;;;18.90;4.50;;;9.70;99.90;;;;;;5053237;28;20231;-31
2023/01/31 11:12:12;;;;;;;19.00;4.97;;;9.80;99.90;;;;;;5042167;28;20620;-30
2023/01/31 11:14:39;;;;;;;14.40;4.17;;;9.80;99.90;;;;;;5042497;28;20205;-30
2023/01/31 11:17:20;;;;;;;12.00;4.57;;;9.80;99.90;;;;;;5051290;28;20747;-33
2023/01/31 11:19:55;;;;;;;16.67;4.63;;;9.90;99.90;;;;;;5032769;28;20210;-33
2023/01/31 11:22:29;;;;;;;18.67;4.70;;;10.00;99.90;;;;;;5033773;28;20207;-31
2023/01/31 11:24:58;;;;;;;14.77;4.33;;;10.00;99.90;;;;;;5041576;28;20200;-31
2023/01/31 11:27:34;;;;;;;12.33;4.13;;;10.00;99.90;;;;;;5038359;28;20212;-30
2023/01/31 11:30:06;;;;;;;13.00;3.57;;;10.00;99.90;;;;;;5034056;28;20631;-30
2023/01/31 11:32:35;;;;;;;16.30;3.57;;;10.00;99.90;;;;;;5057293;28;20278;-30
2023/01/31 11:35:13;;;;;;;16.13;4.57;;;10.00;99.90;;;;;;5046061;28;20196;-32
2023/01/31 11:38:04;;;;;;;15.40;4.00;;;10.10;99.90;;;;;;5036825;28;20205;-32
2023/01/31 11:40:42;;;;;;;13.77;3.97;;;10.20;99.90;;;;;;5031233;28;20706;-32
2023/01/31 11:43:18;;;;;;;12.00;4.63;;;10.20;99.90;;;;;;5028317;28;20213;-33
2023/01/31 11:46:00;;;;;;;19.07;4.73;;;10.20;99.90;;;;;;5037101;28;20207;-32
2023/01/31 11:48:43;;;;;;;11.47;4.17;;;10.20;99.90;;;;;;5043917;28;20197;-32
2023/01/31 11:51:26;;;;;;;15.13;4.73;;;10.20;99.90;;;;;;5065343;28;20225;-32
2023/01/31 11:53:56;;;;;;;24.37;5.17;;;10.20;99.90;;;;;;5061683;28;20585;-32
2023/01/31 11:56:29;;;;;;;16.23;4.40;;;10.30;99.90;;;;;;5034753;28;20196;-32
2023/01/31 11:59:06;;;;;;;15.67;4.20;;;10.40;99.90;;;;;;5031792;28;20207;-32
2023/01/31 12:01:42;;;;;;;15.60;4.87;;;10.40;99.90;;;;;;5044123;28;20583;-32
2023/01/31 12:04:17;;;;;;;17.63;4.83;;;10.40;99.90;;;;;;5052105;28;20230;-32
2023/01/31 12:06:58;;;;;;;18.73;4.60;;;10.40;99.90;;;;;;5039033;28;20206;-32
2023/01/31 12:09:38;;;;;;;16.37;4.87;;;10.40;99.90;;;;;;5029725;28;20204;-32
2023/01/31 12:12:25;;;;;;;20.07;4.80;;;10.40;99.90;;;;;;5040694;28;20742;-32
2023/01/31 12:14:58;;;;;;;13.20;4.40;;;10.50;99.90;;;;;;5040672;28;20201;-32
2023/01/31 12:17:29;;;;;;;21.33;5.20;;;10.40;99.90;;;;;;5021964;28;20204;-32
2023/01/31 12:20:33;;;;;;;14.83;5.23;;;10.40;99.90;;;;;;5040993;28;20700;-32
2023/01/31 12:23:34;;;;;;;19.57;5.30;;;10.40;99.90;;;;;;5041914;28;20623;-32
2023/01/31 12:26:36;;;;;;;12.17;4.73;;;10.40;99.90;;;;;;5042001;28;20196;-32
2023/01/31 12:29:13;;;;;;;15.47;4.57;;;10.40;99.90;;;;;;5037009;28;20575;-32
2023/01/31 12:32:04;;;;;;;14.87;4.90;;;10.40;99.90;;;;;;5027546;28;20220;-32
2023/01/31 12:34:55;;;;;;;13.40;4.17;;;10.40;99.90;;;;;;5040957;28;20196;-32
2023/01/31 12:37:56;;;;;;;17.47;4.73;;;10.40;99.90;;;;;;5041601;28;20196;-32
2023/01/31 12:40:39;;;;;;;12.37;4.30;;;10.40;99.90;;;;;;5046521;28;20290;-32
2023/01/31 12:43:16;;;;;;;17.53;4.53;;;10.40;99.90;;;;;;5039120;28;20200;-32
2023/01/31 12:46:24;;;;;;;16.07;4.83;;;10.40;99.90;;;;;;5043038;28;20200;-32
2023/01/31 12:49:11;;;;;;;19.13;4.93;;;10.50;99.90;;;;;;5036839;28;20334;-32
2023/01/31 12:51:59;;;;;;;14.70;4.70;;;10.50;99.90;;;;;;5051474;28;20243;-32
2023/01/31 12:54:38;;;;;;;23.73;6.20;;;10.50;99.90;;;;;;5049063;28;20647;-32
2023/01/31 12:57:34;;;;;;;16.07;4.90;;;10.50;99.90;;;;;;5034826;28;20229;-32
2023/01/31 13:00:06;;;;;;;25.00;7.53;;;10.50;99.90;;;;;;5049219;28;20197;-32
2023/01/31 13:03:00;;;;;;;13.20;5.23;;;10.50;99.90;;;;;;5045012;28;20687;-32
2023/01/31 13:05:44;;;;;;;15.73;4.60;;;10.50;99.90;;;;;;5041041;28;20251;-32
2023/01/31 13:08:18;;;;;;;21.53;5.77;;;10.40;99.90;;;;;;5043810;28;20254;-32
2023/01/31 13:10:51;;;;;;;15.47;5.13;;;10.40;99.90;;;;;;5040428;28;20291;-32
2023/01/31 13:13:36;;;;;;;20.27;5.07;;;10.50;99.90;;;;;;5041063;28;20336;-32
2023/01/31 13:16:21;;;;;;;19.87;5.70;;;10.60;99.90;;;;;;5050808;28;20208;-31
2023/01/31 13:18:51;;;;;;;17.20;5.60;;;10.60;99.90;;;;;;5007652;28;20267;-31
2023/01/31 13:21:29;;;;;;;26.03;9.60;;;10.60;99.90;;;;;;5048048;28;20224;-31
2023/01/31 13:24:26;;;;;;;20.93;7.13;;;10.70;99.90;;;;;;5043531;28;20200;-31
2023/01/31 13:27:29;;;;;;;18.97;5.80;;;10.70;99.90;;;;;;5038503;28;20504;-31
2023/01/31 13:30:16;;;;;;;13.87;5.73;;;10.70;99.90;;;;;;5044219;28;20234;-31
2023/01/31 13:32:49;;;;;;;23.30;6.40;;;10.60;99.90;;;;;;5034705;28;20234;-31